メインページ
METAR-TAF:

METAR-TAF

空港 :

ジョモ・ケニヤッタ国際空港

ナイロビ, ケニヤ

緯度: 01-19S, 経度: 036-55E, 海抜: 1624m

現時点の気象観測

当レポートは19分前の09:00(UTC)に作成
変向風 3kt
気温 19°C
湿度 64%
気圧 1026 hPa
視程10km以上
高度2200ftの千切れ雲あり

METAR: HKJK 230900Z VRB03KT 9999 BKN022 19/12 Q1026

時間: 12:19 (09:19 UTC)

予報

当レポートは4時間19分前の05:00(UTC)に作成
予報は23日の 06時(UTC)から 24日の 12時(UTC)まで有効
東/南東の風 10kt
視程10km以上
高度2400ftの千切れ雲あり
高度8000ftの雲は散在している
23日の 20時(UTC)から 23日の 23時(UTC)まで徐々に
の風 5kt
高度2000ftの千切れ雲あり
24日の 00時(UTC)から 24日の 06時(UTC)まで一時的に
南西の風 5kt
高度1000ftの雲は散在している
高度1800ftの千切れ雲あり
24日の 08時(UTC)から 24日の 11時(UTC)まで徐々に
南/南東の風 10kt
高度2300ftの千切れ雲あり

TAF: HKJK 230500Z 2306/2412 12010KT 9999 BKN024 SCT080 BECMG 2320/2323 18005KT BKN020 TEMPO 2400/2406 23005KT SCT010 BKN018 BECMG 2408/2411 15010KT BKN023

4,000以上の空港の気象観測と天気予報(METAR報とTAF報)

利用可能な観測所は地図上に黄色い丸と赤い丸で示す。

丸の上にカーソルを重ねると観測所名を参照できる。

次にクリックすると気象観測と天気予報を参照できる。

マップの切り替え:黒色「×」印の緑ボタンをクリックして拡大、「-」印の緑ボタンをクリックして縮小、緑色の三角印をクリックして隣りの地図に切り替え


METAR-TAF: